sensor_id;sensor_type;location;lat;lon;timestamp;temperature;humidity
1413;DHT22;701;52.526;13.408;2022-08-19T00:00:18;22.50;46.50
1413;DHT22;701;52.526;13.408;2022-08-19T00:02:44;22.50;46.50
1413;DHT22;701;52.526;13.408;2022-08-19T00:05:13;22.50;46.60
1413;DHT22;701;52.526;13.408;2022-08-19T00:07:39;22.50;46.50
1413;DHT22;701;52.526;13.408;2022-08-19T00:10:07;22.50;46.50
1413;DHT22;701;52.526;13.408;2022-08-19T00:12:33;22.50;46.60
1413;DHT22;701;52.526;13.408;2022-08-19T00:14:59;22.50;46.50
1413;DHT22;701;52.526;13.408;2022-08-19T00:17:25;22.50;46.50
1413;DHT22;701;52.526;13.408;2022-08-19T00:19:51;22.50;46.50
1413;DHT22;701;52.526;13.408;2022-08-19T00:22:17;22.60;46.60
1413;DHT22;701;52.526;13.408;2022-08-19T00:24:44;22.60;46.60
1413;DHT22;701;52.526;13.408;2022-08-19T00:27:11;22.60;46.60
1413;DHT22;701;52.526;13.408;2022-08-19T00:29:37;22.60;46.60
1413;DHT22;701;52.526;13.408;2022-08-19T00:32:04;22.60;46.60
1413;DHT22;701;52.526;13.408;2022-08-19T00:34:30;22.60;46.60
1413;DHT22;701;52.526;13.408;2022-08-19T00:36:57;22.60;46.60
1413;DHT22;701;52.526;13.408;2022-08-19T00:39:23;22.60;46.60
1413;DHT22;701;52.526;13.408;2022-08-19T00:41:50;22.60;46.60
1413;DHT22;701;52.526;13.408;2022-08-19T00:44:22;22.60;46.60
1413;DHT22;701;52.526;13.408;2022-08-19T00:46:50;22.60;46.60
1413;DHT22;701;52.526;13.408;2022-08-19T00:51:53;22.60;46.60
1413;DHT22;701;52.526;13.408;2022-08-19T00:54:21;22.60;46.60
1413;DHT22;701;52.526;13.408;2022-08-19T00:56:48;22.60;46.60
1413;DHT22;701;52.526;13.408;2022-08-19T00:59:15;22.60;46.60
1413;DHT22;701;52.526;13.408;2022-08-19T01:01:42;22.60;46.60
1413;DHT22;701;52.526;13.408;2022-08-19T01:04:09;22.60;46.90
1413;DHT22;701;52.526;13.408;2022-08-19T01:06:36;22.60;47.00
1413;DHT22;701;52.526;13.408;2022-08-19T01:09:03;22.50;47.30
1413;DHT22;701;52.526;13.408;2022-08-19T01:11:31;22.40;47.60
1413;DHT22;701;52.526;13.408;2022-08-19T01:13:59;22.40;48.10
1413;DHT22;701;52.526;13.408;2022-08-19T01:16:26;22.30;48.50
1413;DHT22;701;52.526;13.408;2022-08-19T01:18:53;22.30;48.70
1413;DHT22;701;52.526;13.408;2022-08-19T01:21:32;22.30;48.90
1413;DHT22;701;52.526;13.408;2022-08-19T01:24:00;22.30;48.70
1413;DHT22;701;52.526;13.408;2022-08-19T01:26:26;22.30;48.90
1413;DHT22;701;52.526;13.408;2022-08-19T01:28:56;22.30;48.90
1413;DHT22;701;52.526;13.408;2022-08-19T01:31:25;22.20;48.80
1413;DHT22;701;52.526;13.408;2022-08-19T01:33:53;22.20;48.90
1413;DHT22;701;52.526;13.408;2022-08-19T01:36:39;22.20;49.20
1413;DHT22;701;52.526;13.408;2022-08-19T01:39:12;22.10;49.30
1413;DHT22;701;52.526;13.408;2022-08-19T01:41:38;22.10;49.60
1413;DHT22;701;52.526;13.408;2022-08-19T01:44:06;22.10;49.80
1413;DHT22;701;52.526;13.408;2022-08-19T01:46:32;22.10;50.50
1413;DHT22;701;52.526;13.408;2022-08-19T01:48:58;22.10;50.60
1413;DHT22;701;52.526;13.408;2022-08-19T01:51:24;22.10;50.50
1413;DHT22;701;52.526;13.408;2022-08-19T01:53:51;22.10;50.50
1413;DHT22;701;52.526;13.408;2022-08-19T01:56:18;21.90;50.30
1413;DHT22;701;52.526;13.408;2022-08-19T01:58:49;21.90;50.80
1413;DHT22;701;52.526;13.408;2022-08-19T02:01:16;21.90;51.50
1413;DHT22;701;52.526;13.408;2022-08-19T02:03:42;21.80;51.50
1413;DHT22;701;52.526;13.408;2022-08-19T02:06:08;21.80;52.30
1413;DHT22;701;52.526;13.408;2022-08-19T02:08:36;21.80;53.00
1413;DHT22;701;52.526;13.408;2022-08-19T02:11:03;21.70;53.00
1413;DHT22;701;52.526;13.408;2022-08-19T02:13:29;21.70;54.00
1413;DHT22;701;52.526;13.408;2022-08-19T02:15:55;21.70;54.50
1413;DHT22;701;52.526;13.408;2022-08-19T02:18:20;21.70;54.50
1413;DHT22;701;52.526;13.408;2022-08-19T02:20:46;21.60;54.50
1413;DHT22;701;52.526;13.408;2022-08-19T02:23:16;21.60;54.60
1413;DHT22;701;52.526;13.408;2022-08-19T02:25:44;21.50;55.00
1413;DHT22;701;52.526;13.408;2022-08-19T02:28:10;21.50;55.10
1413;DHT22;701;52.526;13.408;2022-08-19T02:30:37;21.50;55.40
1413;DHT22;701;52.526;13.408;2022-08-19T02:33:04;21.40;55.30
1413;DHT22;701;52.526;13.408;2022-08-19T02:35:30;21.40;55.50
1413;DHT22;701;52.526;13.408;2022-08-19T02:37:56;21.40;55.40
1413;DHT22;701;52.526;13.408;2022-08-19T02:40:49;21.30;55.80
1413;DHT22;701;52.526;13.408;2022-08-19T02:43:17;21.30;56.10
1413;DHT22;701;52.526;13.408;2022-08-19T02:45:43;21.30;56.00
1413;DHT22;701;52.526;13.408;2022-08-19T02:48:09;21.30;56.10
1413;DHT22;701;52.526;13.408;2022-08-19T02:50:38;21.30;56.10
1413;DHT22;701;52.526;13.408;2022-08-19T02:53:04;21.30;56.50
1413;DHT22;701;52.526;13.408;2022-08-19T02:55:31;21.30;56.60
1413;DHT22;701;52.526;13.408;2022-08-19T02:57:57;21.40;56.40
1413;DHT22;701;52.526;13.408;2022-08-19T03:00:23;21.30;56.30
1413;DHT22;701;52.526;13.408;2022-08-19T03:02:49;21.40;56.30
1413;DHT22;701;52.526;13.408;2022-08-19T03:05:15;21.40;56.50
1413;DHT22;701;52.526;13.408;2022-08-19T03:07:41;21.40;56.00
1413;DHT22;701;52.526;13.408;2022-08-19T03:10:07;21.30;55.80
1413;DHT22;701;52.526;13.408;2022-08-19T03:12:36;21.40;56.10
1413;DHT22;701;52.526;13.408;2022-08-19T03:15:04;21.40;55.90
1413;DHT22;701;52.526;13.408;2022-08-19T03:17:30;21.30;55.90
1413;DHT22;701;52.526;13.408;2022-08-19T03:19:55;21.30;55.70
1413;DHT22;701;52.526;13.408;2022-08-19T03:22:21;21.30;55.60
1413;DHT22;701;52.526;13.408;2022-08-19T03:24:47;21.30;55.40
1413;DHT22;701;52.526;13.408;2022-08-19T03:27:13;21.30;55.40
1413;DHT22;701;52.526;13.408;2022-08-19T03:29:39;21.30;55.30
1413;DHT22;701;52.526;13.408;2022-08-19T03:32:06;21.20;55.20
1413;DHT22;701;52.526;13.408;2022-08-19T03:34:33;21.20;55.10
1413;DHT22;701;52.526;13.408;2022-08-19T03:37:04;21.20;55.30
1413;DHT22;701;52.526;13.408;2022-08-19T03:39:30;21.20;55.60
1413;DHT22;701;52.526;13.408;2022-08-19T03:41:56;21.20;55.70
1413;DHT22;701;52.526;13.408;2022-08-19T03:44:28;21.20;55.90
1413;DHT22;701;52.526;13.408;2022-08-19T03:46:56;21.20;55.60
1413;DHT22;701;52.526;13.408;2022-08-19T03:49:24;21.20;56.00
1413;DHT22;701;52.526;13.408;2022-08-19T03:51:50;21.20;55.90
1413;DHT22;701;52.526;13.408;2022-08-19T03:54:21;21.20;55.90
1413;DHT22;701;52.526;13.408;2022-08-19T03:56:49;21.20;56.00
1413;DHT22;701;52.526;13.408;2022-08-19T03:59:24;21.20;56.10
1413;DHT22;701;52.526;13.408;2022-08-19T04:02:02;21.20;56.00
1413;DHT22;701;52.526;13.408;2022-08-19T04:04:28;21.20;56.00
1413;DHT22;701;52.526;13.408;2022-08-19T04:06:55;21.20;55.90
1413;DHT22;701;52.526;13.408;2022-08-19T04:09:21;21.20;55.90
1413;DHT22;701;52.526;13.408;2022-08-19T04:11:54;21.20;55.80
1413;DHT22;701;52.526;13.408;2022-08-19T04:14:26;21.20;55.90
1413;DHT22;701;52.526;13.408;2022-08-19T04:16:54;21.20;55.90
1413;DHT22;701;52.526;13.408;2022-08-19T04:19:20;21.30;56.00
1413;DHT22;701;52.526;13.408;2022-08-19T04:21:47;21.30;55.90
1413;DHT22;701;52.526;13.408;2022-08-19T04:24:13;21.30;55.80
1413;DHT22;701;52.526;13.408;2022-08-19T04:26:39;21.30;55.60
1413;DHT22;701;52.526;13.408;2022-08-19T04:29:10;21.30;55.70
1413;DHT22;701;52.526;13.408;2022-08-19T04:31:36;21.40;55.60
1413;DHT22;701;52.526;13.408;2022-08-19T04:34:05;21.40;55.60
1413;DHT22;701;52.526;13.408;2022-08-19T04:36:34;21.50;55.70
1413;DHT22;701;52.526;13.408;2022-08-19T04:39:05;21.50;55.50
1413;DHT22;701;52.526;13.408;2022-08-19T04:41:31;21.50;55.30
1413;DHT22;701;52.526;13.408;2022-08-19T04:44:15;21.60;54.90
1413;DHT22;701;52.526;13.408;2022-08-19T04:46:47;21.60;54.40
1413;DHT22;701;52.526;13.408;2022-08-19T04:49:14;21.60;54.40
1413;DHT22;701;52.526;13.408;2022-08-19T04:51:43;21.70;54.40
1413;DHT22;701;52.526;13.408;2022-08-19T04:54:09;21.80;54.00
1413;DHT22;701;52.526;13.408;2022-08-19T04:56:35;21.80;53.50
1413;DHT22;701;52.526;13.408;2022-08-19T04:59:00;21.90;53.10
1413;DHT22;701;52.526;13.408;2022-08-19T05:01:31;21.90;52.60
1413;DHT22;701;52.526;13.408;2022-08-19T05:04:00;22.00;52.20
1413;DHT22;701;52.526;13.408;2022-08-19T05:06:31;22.10;51.90
1413;DHT22;701;52.526;13.408;2022-08-19T05:09:00;22.20;51.80
1413;DHT22;701;52.526;13.408;2022-08-19T05:11:29;22.30;51.30
1413;DHT22;701;52.526;13.408;2022-08-19T05:13:55;22.30;50.70
1413;DHT22;701;52.526;13.408;2022-08-19T05:16:22;22.40;50.20
1413;DHT22;701;52.526;13.408;2022-08-19T05:18:49;22.40;50.30
1413;DHT22;701;52.526;13.408;2022-08-19T05:21:35;22.50;49.90
1413;DHT22;701;52.526;13.408;2022-08-19T05:24:21;22.50;49.60
1413;DHT22;701;52.526;13.408;2022-08-19T05:26:49;22.60;49.00
1413;DHT22;701;52.526;13.408;2022-08-19T05:29:18;22.70;48.80
1413;DHT22;701;52.526;13.408;2022-08-19T05:31:44;22.70;48.50
1413;DHT22;701;52.526;13.408;2022-08-19T05:34:11;22.70;48.10
1413;DHT22;701;52.526;13.408;2022-08-19T05:36:41;22.80;47.60
1413;DHT22;701;52.526;13.408;2022-08-19T05:39:08;22.80;47.20
1413;DHT22;701;52.526;13.408;2022-08-19T05:41:35;22.80;46.90
1413;DHT22;701;52.526;13.408;2022-08-19T05:44:02;22.80;46.80
1413;DHT22;701;52.526;13.408;2022-08-19T05:46:31;22.90;46.80
1413;DHT22;701;52.526;13.408;2022-08-19T05:48:57;22.90;46.80
1413;DHT22;701;52.526;13.408;2022-08-19T05:51:24;23.00;46.50
1413;DHT22;701;52.526;13.408;2022-08-19T05:53:51;23.10;46.30
1413;DHT22;701;52.526;13.408;2022-08-19T05:56:17;23.20;45.80
1413;DHT22;701;52.526;13.408;2022-08-19T05:58:45;23.40;45.40
1413;DHT22;701;52.526;13.408;2022-08-19T06:01:13;23.50;44.00
1413;DHT22;701;52.526;13.408;2022-08-19T06:03:39;23.60;43.10
1413;DHT22;701;52.526;13.408;2022-08-19T06:06:07;23.90;42.70
1413;DHT22;701;52.526;13.408;2022-08-19T06:08:33;24.00;41.80
1413;DHT22;701;52.526;13.408;2022-08-19T06:11:24;24.20;41.00
1413;DHT22;701;52.526;13.408;2022-08-19T06:13:53;24.30;39.20
1413;DHT22;701;52.526;13.408;2022-08-19T06:16:20;24.30;39.20
1413;DHT22;701;52.526;13.408;2022-08-19T06:18:52;24.30;39.20
1413;DHT22;701;52.526;13.408;2022-08-19T06:21:20;24.30;38.80
1413;DHT22;701;52.526;13.408;2022-08-19T06:23:47;24.30;38.80
1413;DHT22;701;52.526;13.408;2022-08-19T06:26:14;24.40;38.20
1413;DHT22;701;52.526;13.408;2022-08-19T06:28:40;24.40;37.80
1413;DHT22;701;52.526;13.408;2022-08-19T06:31:16;24.50;37.20
1413;DHT22;701;52.526;13.408;2022-08-19T06:33:43;24.70;37.20
1413;DHT22;701;52.526;13.408;2022-08-19T06:36:18;24.90;36.60
1413;DHT22;701;52.526;13.408;2022-08-19T06:38:44;25.10;35.20
1413;DHT22;701;52.526;13.408;2022-08-19T06:41:10;25.10;34.50
1413;DHT22;701;52.526;13.408;2022-08-19T06:43:36;25.30;34.30
1413;DHT22;701;52.526;13.408;2022-08-19T06:46:02;25.40;33.00
1413;DHT22;701;52.526;13.408;2022-08-19T06:48:29;25.50;32.70
1413;DHT22;701;52.526;13.408;2022-08-19T06:50:55;25.60;31.70
1413;DHT22;701;52.526;13.408;2022-08-19T06:53:21;25.70;31.80
1413;DHT22;701;52.526;13.408;2022-08-19T06:55:47;25.70;31.00
1413;DHT22;701;52.526;13.408;2022-08-19T06:58:13;25.70;31.00
1413;DHT22;701;52.526;13.408;2022-08-19T07:00:39;25.80;31.10
1413;DHT22;701;52.526;13.408;2022-08-19T07:03:05;25.70;31.00
1413;DHT22;701;52.526;13.408;2022-08-19T07:05:31;25.80;30.50
1413;DHT22;701;52.526;13.408;2022-08-19T07:07:57;25.80;31.10
1413;DHT22;701;52.526;13.408;2022-08-19T07:10:23;25.80;31.10
1413;DHT22;701;52.526;13.408;2022-08-19T07:12:48;25.90;30.60
1413;DHT22;701;52.526;13.408;2022-08-19T07:15:15;25.90;30.20
1413;DHT22;701;52.526;13.408;2022-08-19T07:17:42;25.80;30.10
1413;DHT22;701;52.526;13.408;2022-08-19T07:20:10;25.80;30.00
1413;DHT22;701;52.526;13.408;2022-08-19T07:22:39;25.90;29.90
1413;DHT22;701;52.526;13.408;2022-08-19T07:25:07;25.90;29.60
1413;DHT22;701;52.526;13.408;2022-08-19T07:27:34;26.00;29.30
1413;DHT22;701;52.526;13.408;2022-08-19T07:29:59;26.00;28.80
1413;DHT22;701;52.526;13.408;2022-08-19T07:32:26;26.10;28.70
1413;DHT22;701;52.526;13.408;2022-08-19T07:34:52;26.10;28.40
1413;DHT22;701;52.526;13.408;2022-08-19T07:37:18;26.10;27.90
1413;DHT22;701;52.526;13.408;2022-08-19T07:39:43;26.10;28.00
1413;DHT22;701;52.526;13.408;2022-08-19T07:42:10;26.10;27.80
1413;DHT22;701;52.526;13.408;2022-08-19T07:44:37;26.00;28.00
1413;DHT22;701;52.526;13.408;2022-08-19T07:47:04;26.10;28.20
1413;DHT22;701;52.526;13.408;2022-08-19T07:49:30;26.10;27.80
1413;DHT22;701;52.526;13.408;2022-08-19T07:51:58;26.00;27.70
1413;DHT22;701;52.526;13.408;2022-08-19T07:54:28;26.00;27.80
1413;DHT22;701;52.526;13.408;2022-08-19T07:56:54;26.00;28.00
1413;DHT22;701;52.526;13.408;2022-08-19T07:59:21;26.00;28.00
1413;DHT22;701;52.526;13.408;2022-08-19T08:01:47;26.10;28.00
1413;DHT22;701;52.526;13.408;2022-08-19T08:04:13;26.10;27.80
1413;DHT22;701;52.526;13.408;2022-08-19T08:06:57;26.20;27.60
1413;DHT22;701;52.526;13.408;2022-08-19T08:09:42;26.20;27.50
1413;DHT22;701;52.526;13.408;2022-08-19T08:12:10;26.20;27.50
1413;DHT22;701;52.526;13.408;2022-08-19T08:14:56;26.20;27.50
1413;DHT22;701;52.526;13.408;2022-08-19T08:17:26;26.20;27.50
1413;DHT22;701;52.526;13.408;2022-08-19T08:19:53;26.20;27.50
1413;DHT22;701;52.526;13.408;2022-08-19T08:22:21;26.30;27.60
1413;DHT22;701;52.526;13.408;2022-08-19T08:25:14;26.30;27.30
1413;DHT22;701;52.526;13.408;2022-08-19T08:27:42;26.30;27.10
1413;DHT22;701;52.526;13.408;2022-08-19T08:30:11;26.30;27.00
1413;DHT22;701;52.526;13.408;2022-08-19T08:32:38;26.30;27.00
1413;DHT22;701;52.526;13.408;2022-08-19T08:35:06;26.40;26.80
1413;DHT22;701;52.526;13.408;2022-08-19T08:37:32;26.40;26.70
1413;DHT22;701;52.526;13.408;2022-08-19T08:39:58;26.50;26.50
1413;DHT22;701;52.526;13.408;2022-08-19T08:42:34;26.60;26.30
1413;DHT22;701;52.526;13.408;2022-08-19T08:45:13;26.70;26.20
1413;DHT22;701;52.526;13.408;2022-08-19T08:47:45;26.80;25.50
1413;DHT22;701;52.526;13.408;2022-08-19T08:50:23;26.80;25.40
1413;DHT22;701;52.526;13.408;2022-08-19T08:52:53;26.90;25.10
1413;DHT22;701;52.526;13.408;2022-08-19T08:55:25;26.90;25.30
1413;DHT22;701;52.526;13.408;2022-08-19T09:00:36;27.10;24.70
1413;DHT22;701;52.526;13.408;2022-08-19T09:03:03;27.30;24.40
1413;DHT22;701;52.526;13.408;2022-08-19T09:05:56;27.40;24.40
1413;DHT22;701;52.526;13.408;2022-08-19T09:11:09;27.60;23.10
1413;DHT22;701;52.526;13.408;2022-08-19T09:13:41;27.60;23.20
1413;DHT22;701;52.526;13.408;2022-08-19T09:16:14;27.50;23.10
1413;DHT22;701;52.526;13.408;2022-08-19T09:18:48;27.40;22.80
1413;DHT22;701;52.526;13.408;2022-08-19T09:21:16;27.40;22.90
1413;DHT22;701;52.526;13.408;2022-08-19T09:23:41;27.50;23.00
1413;DHT22;701;52.526;13.408;2022-08-19T09:26:14;27.60;22.80
1413;DHT22;701;52.526;13.408;2022-08-19T09:28:42;27.90;22.20
1413;DHT22;701;52.526;13.408;2022-08-19T09:31:18;28.00;21.60
1413;DHT22;701;52.526;13.408;2022-08-19T09:33:44;28.20;21.60
1413;DHT22;701;52.526;13.408;2022-08-19T09:36:13;28.40;21.10
1413;DHT22;701;52.526;13.408;2022-08-19T09:38:39;28.60;20.40
1413;DHT22;701;52.526;13.408;2022-08-19T09:41:17;28.70;19.70
1413;DHT22;701;52.526;13.408;2022-08-19T09:43:46;28.80;19.10
1413;DHT22;701;52.526;13.408;2022-08-19T09:46:12;28.90;19.10
1413;DHT22;701;52.526;13.408;2022-08-19T09:48:41;29.10;19.40
1413;DHT22;701;52.526;13.408;2022-08-19T09:51:11;29.40;18.00
1413;DHT22;701;52.526;13.408;2022-08-19T09:53:40;29.70;17.70
1413;DHT22;701;52.526;13.408;2022-08-19T09:56:07;29.90;17.10
1413;DHT22;701;52.526;13.408;2022-08-19T09:58:33;30.00;16.00
1413;DHT22;701;52.526;13.408;2022-08-19T10:01:00;30.00;16.00
1413;DHT22;701;52.526;13.408;2022-08-19T10:03:28;30.10;15.60
1413;DHT22;701;52.526;13.408;2022-08-19T10:05:56;30.00;15.40
1413;DHT22;701;52.526;13.408;2022-08-19T10:08:25;29.90;15.50
1413;DHT22;701;52.526;13.408;2022-08-19T10:10:52;29.90;15.60
1413;DHT22;701;52.526;13.408;2022-08-19T10:13:19;29.80;15.80
1413;DHT22;701;52.526;13.408;2022-08-19T10:15:49;29.70;15.80
1413;DHT22;701;52.526;13.408;2022-08-19T10:18:19;29.60;15.90
1413;DHT22;701;52.526;13.408;2022-08-19T10:20:47;29.50;15.90
1413;DHT22;701;52.526;13.408;2022-08-19T10:23:13;29.40;16.30
1413;DHT22;701;52.526;13.408;2022-08-19T10:25:41;29.20;16.60
1413;DHT22;701;52.526;13.408;2022-08-19T10:28:07;29.00;17.10
1413;DHT22;701;52.526;13.408;2022-08-19T10:30:35;28.80;17.60
1413;DHT22;701;52.526;13.408;2022-08-19T10:33:01;28.60;17.60
1413;DHT22;701;52.526;13.408;2022-08-19T10:35:27;28.30;19.00
1413;DHT22;701;52.526;13.408;2022-08-19T10:37:55;28.20;19.00
1413;DHT22;701;52.526;13.408;2022-08-19T10:40:25;28.10;19.40
1413;DHT22;701;52.526;13.408;2022-08-19T10:42:52;27.90;19.70
1413;DHT22;701;52.526;13.408;2022-08-19T10:45:18;27.80;20.00
1413;DHT22;701;52.526;13.408;2022-08-19T10:47:44;27.80;20.30
1413;DHT22;701;52.526;13.408;2022-08-19T10:50:10;27.80;20.60
1413;DHT22;701;52.526;13.408;2022-08-19T10:52:54;27.70;20.80
1413;DHT22;701;52.526;13.408;2022-08-19T10:55:22;27.70;20.80
1413;DHT22;701;52.526;13.408;2022-08-19T10:58:15;27.70;20.80
1413;DHT22;701;52.526;13.408;2022-08-19T11:00:41;27.70;20.80
1413;DHT22;701;52.526;13.408;2022-08-19T11:03:08;27.70;20.80
1413;DHT22;701;52.526;13.408;2022-08-19T11:05:34;27.70;20.80
1413;DHT22;701;52.526;13.408;2022-08-19T11:08:00;27.80;20.90
1413;DHT22;701;52.526;13.408;2022-08-19T11:10:26;27.70;20.80
1413;DHT22;701;52.526;13.408;2022-08-19T11:12:52;27.70;21.40
1413;DHT22;701;52.526;13.408;2022-08-19T11:15:20;27.70;20.80
1413;DHT22;701;52.526;13.408;2022-08-19T11:17:46;27.60;20.80
1413;DHT22;701;52.526;13.408;2022-08-19T11:20:13;27.50;21.10
1413;DHT22;701;52.526;13.408;2022-08-19T11:22:40;27.30;21.50
1413;DHT22;701;52.526;13.408;2022-08-19T11:25:07;27.20;21.90
1413;DHT22;701;52.526;13.408;2022-08-19T11:27:33;27.10;22.20
1413;DHT22;701;52.526;13.408;2022-08-19T11:29:59;27.00;22.50
1413;DHT22;701;52.526;13.408;2022-08-19T11:32:26;26.90;22.70
1413;DHT22;701;52.526;13.408;2022-08-19T11:34:52;26.90;22.90
1413;DHT22;701;52.526;13.408;2022-08-19T11:37:18;27.00;23.00
1413;DHT22;701;52.526;13.408;2022-08-19T11:39:43;27.00;22.70
1413;DHT22;701;52.526;13.408;2022-08-19T11:42:09;27.00;22.60
1413;DHT22;701;52.526;13.408;2022-08-19T11:44:54;27.00;22.50
1413;DHT22;701;52.526;13.408;2022-08-19T11:47:19;27.00;22.50
1413;DHT22;701;52.526;13.408;2022-08-19T11:49:46;26.90;22.50
1413;DHT22;701;52.526;13.408;2022-08-19T11:52:12;26.80;22.60
1413;DHT22;701;52.526;13.408;2022-08-19T11:54:38;26.70;22.80
1413;DHT22;701;52.526;13.408;2022-08-19T11:57:04;26.60;22.90
1413;DHT22;701;52.526;13.408;2022-08-19T11:59:29;26.50;23.20
1413;DHT22;701;52.526;13.408;2022-08-19T12:01:55;26.50;23.40
1413;DHT22;701;52.526;13.408;2022-08-19T12:04:24;26.40;23.60
1413;DHT22;701;52.526;13.408;2022-08-19T12:06:49;26.40;24.40
1413;DHT22;701;52.526;13.408;2022-08-19T12:09:16;26.40;23.90
1413;DHT22;701;52.526;13.408;2022-08-19T12:11:43;26.40;23.90
1413;DHT22;701;52.526;13.408;2022-08-19T12:14:13;26.50;24.00
1413;DHT22;701;52.526;13.408;2022-08-19T12:16:39;26.60;23.70
1413;DHT22;701;52.526;13.408;2022-08-19T12:19:06;26.70;23.00
1413;DHT22;701;52.526;13.408;2022-08-19T12:21:34;26.80;22.80
1413;DHT22;701;52.526;13.408;2022-08-19T12:24:02;26.90;22.50
1413;DHT22;701;52.526;13.408;2022-08-19T12:26:29;27.10;22.00
1413;DHT22;701;52.526;13.408;2022-08-19T12:28:57;27.20;21.60
1413;DHT22;701;52.526;13.408;2022-08-19T12:31:25;27.30;21.30
1413;DHT22;701;52.526;13.408;2022-08-19T12:33:51;27.40;20.80
1413;DHT22;701;52.526;13.408;2022-08-19T12:36:18;27.60;20.80
1413;DHT22;701;52.526;13.408;2022-08-19T12:38:44;27.80;20.30
1413;DHT22;701;52.526;13.408;2022-08-19T12:41:13;27.90;19.70
1413;DHT22;701;52.526;13.408;2022-08-19T12:43:39;28.10;19.10
1413;DHT22;701;52.526;13.408;2022-08-19T12:46:06;28.40;18.60
1413;DHT22;701;52.526;13.408;2022-08-19T12:48:33;28.60;17.80
1413;DHT22;701;52.526;13.408;2022-08-19T12:50:59;28.80;17.60
1413;DHT22;701;52.526;13.408;2022-08-19T12:53:24;28.90;17.50
1413;DHT22;701;52.526;13.408;2022-08-19T12:55:57;29.00;17.00
1413;DHT22;701;52.526;13.408;2022-08-19T12:58:25;29.00;16.50
1413;DHT22;701;52.526;13.408;2022-08-19T13:00:51;29.00;16.30
1413;DHT22;701;52.526;13.408;2022-08-19T13:03:16;28.90;16.40
1413;DHT22;701;52.526;13.408;2022-08-19T13:05:42;28.70;16.50
1413;DHT22;701;52.526;13.408;2022-08-19T13:08:08;28.70;16.50
1413;DHT22;701;52.526;13.408;2022-08-19T13:10:35;28.70;16.70
1413;DHT22;701;52.526;13.408;2022-08-19T13:13:03;28.60;16.90
1413;DHT22;701;52.526;13.408;2022-08-19T13:15:37;28.50;17.10
1413;DHT22;701;52.526;13.408;2022-08-19T13:18:03;28.60;16.90
1413;DHT22;701;52.526;13.408;2022-08-19T13:20:28;28.70;16.80
1413;DHT22;701;52.526;13.408;2022-08-19T13:22:55;28.70;16.50
1413;DHT22;701;52.526;13.408;2022-08-19T13:25:22;28.80;16.40
1413;DHT22;701;52.526;13.408;2022-08-19T13:27:49;28.90;16.10
1413;DHT22;701;52.526;13.408;2022-08-19T13:30:17;29.00;15.90
1413;DHT22;701;52.526;13.408;2022-08-19T13:33:02;29.10;15.50
1413;DHT22;701;52.526;13.408;2022-08-19T13:35:51;29.20;15.40
1413;DHT22;701;52.526;13.408;2022-08-19T13:38:22;29.30;15.20
1413;DHT22;701;52.526;13.408;2022-08-19T13:40:49;29.40;14.90
1413;DHT22;701;52.526;13.408;2022-08-19T13:43:16;29.50;14.60
1413;DHT22;701;52.526;13.408;2022-08-19T13:45:41;29.50;14.10
1413;DHT22;701;52.526;13.408;2022-08-19T13:48:08;29.40;14.00
1413;DHT22;701;52.526;13.408;2022-08-19T13:50:39;29.30;14.30
1413;DHT22;701;52.526;13.408;2022-08-19T13:53:10;29.00;14.60
1413;DHT22;701;52.526;13.408;2022-08-19T13:55:41;28.80;15.30
1413;DHT22;701;52.526;13.408;2022-08-19T13:58:08;28.70;15.70
1413;DHT22;701;52.526;13.408;2022-08-19T14:00:38;28.50;16.00
1413;DHT22;701;52.526;13.408;2022-08-19T14:03:04;28.30;16.50
1413;DHT22;701;52.526;13.408;2022-08-19T14:05:31;28.10;16.90
1413;DHT22;701;52.526;13.408;2022-08-19T14:07:57;28.10;17.20
1413;DHT22;701;52.526;13.408;2022-08-19T14:10:24;28.00;17.20
1413;DHT22;701;52.526;13.408;2022-08-19T14:12:55;28.00;17.20
1413;DHT22;701;52.526;13.408;2022-08-19T14:15:21;27.90;17.20
1413;DHT22;701;52.526;13.408;2022-08-19T14:17:48;27.90;17.40
1413;DHT22;701;52.526;13.408;2022-08-19T14:20:14;27.80;17.20
1413;DHT22;701;52.526;13.408;2022-08-19T14:22:41;27.80;17.40
1413;DHT22;701;52.526;13.408;2022-08-19T14:25:10;27.90;17.20
1413;DHT22;701;52.526;13.408;2022-08-19T14:27:37;28.00;17.20
1413;DHT22;701;52.526;13.408;2022-08-19T14:30:06;28.10;17.20
1413;DHT22;701;52.526;13.408;2022-08-19T14:32:32;28.10;17.20
1413;DHT22;701;52.526;13.408;2022-08-19T14:34:58;28.10;17.20
1413;DHT22;701;52.526;13.408;2022-08-19T14:37:24;28.00;17.20
1413;DHT22;701;52.526;13.408;2022-08-19T14:39:50;28.00;17.20
1413;DHT22;701;52.526;13.408;2022-08-19T14:42:16;27.90;17.10
1413;DHT22;701;52.526;13.408;2022-08-19T14:44:42;27.80;17.10
1413;DHT22;701;52.526;13.408;2022-08-19T14:47:09;27.60;17.50
1413;DHT22;701;52.526;13.408;2022-08-19T14:49:35;27.50;17.90
1413;DHT22;701;52.526;13.408;2022-08-19T14:52:01;27.40;18.20
1413;DHT22;701;52.526;13.408;2022-08-19T14:54:28;27.30;18.60
1413;DHT22;701;52.526;13.408;2022-08-19T14:56:53;27.20;19.00
1413;DHT22;701;52.526;13.408;2022-08-19T14:59:19;27.10;19.30
1413;DHT22;701;52.526;13.408;2022-08-19T15:01:45;27.00;19.60
1413;DHT22;701;52.526;13.408;2022-08-19T15:04:11;27.00;19.80
1413;DHT22;701;52.526;13.408;2022-08-19T15:06:36;27.00;20.00
1413;DHT22;701;52.526;13.408;2022-08-19T15:09:03;27.10;19.90
1413;DHT22;701;52.526;13.408;2022-08-19T15:11:29;27.20;19.80
1413;DHT22;701;52.526;13.408;2022-08-19T15:13:58;27.30;19.70
1413;DHT22;701;52.526;13.408;2022-08-19T15:16:24;27.30;19.50
1413;DHT22;701;52.526;13.408;2022-08-19T15:18:54;27.20;19.50
1413;DHT22;701;52.526;13.408;2022-08-19T15:21:20;27.10;19.50
1413;DHT22;701;52.526;13.408;2022-08-19T15:23:48;27.00;19.70
1413;DHT22;701;52.526;13.408;2022-08-19T15:26:15;26.90;19.80
1413;DHT22;701;52.526;13.408;2022-08-19T15:28:41;26.80;20.10
1413;DHT22;701;52.526;13.408;2022-08-19T15:31:07;26.70;20.30
1413;DHT22;701;52.526;13.408;2022-08-19T15:33:35;26.50;20.40
1413;DHT22;701;52.526;13.408;2022-08-19T15:36:05;26.40;20.80
1413;DHT22;701;52.526;13.408;2022-08-19T15:38:32;26.30;21.10
1413;DHT22;701;52.526;13.408;2022-08-19T15:41:00;26.30;21.30
1413;DHT22;701;52.526;13.408;2022-08-19T15:43:47;26.30;21.70
1413;DHT22;701;52.526;13.408;2022-08-19T15:46:17;26.10;21.90
1413;DHT22;701;52.526;13.408;2022-08-19T15:48:43;26.10;22.40
1413;DHT22;701;52.526;13.408;2022-08-19T15:51:10;25.90;22.60
1413;DHT22;701;52.526;13.408;2022-08-19T15:53:36;25.80;23.00
1413;DHT22;701;52.526;13.408;2022-08-19T15:56:02;25.70;23.60
1413;DHT22;701;52.526;13.408;2022-08-19T15:58:28;25.60;23.50
1413;DHT22;701;52.526;13.408;2022-08-19T16:01:12;25.50;23.90
1413;DHT22;701;52.526;13.408;2022-08-19T16:03:54;25.30;24.00
1413;DHT22;701;52.526;13.408;2022-08-19T16:06:41;25.30;24.60
1413;DHT22;701;52.526;13.408;2022-08-19T16:09:07;25.10;24.90
1413;DHT22;701;52.526;13.408;2022-08-19T16:11:34;25.10;25.20
1413;DHT22;701;52.526;13.408;2022-08-19T16:14:00;25.00;25.50
1413;DHT22;701;52.526;13.408;2022-08-19T16:16:31;25.00;25.70